Glasgow, MT (59230)

5:39 PM MDT on May 27, 2017 (GMT -0600)
East Glasgow | | Change Station
Active Advisory: Lake Wind Advisory

Elev 2205 ft 48.19 °N, 106.61 °W | Updated 4 minutes ago

Scattered Clouds
Scattered Clouds
78.6 °F
Feels Like 78 °F
N
15.0
Wind Variable Wind from WNW
Gusts 24.0 mph

Today
High -- | Low -- °F
--% Chance of Precip.
Yesterday
High -- | Low -- °F
Precip. -- in
Pressure 29.91 in
Visibility 10.0 miles
Clouds Few 10000 ft
Scattered Clouds 12000 ft
Heat Index 78 °F
Dew Point 33 °F
Humidity 19%
Rainfall 0.00 in
Snow Depth Not available.
5:13 AM 8:54 PM
Waxing Crescent, 7% visible
METAR KGGW 272253Z AUTO 33021G29KT 10SM FEW100 SCT120 26/01 A2992 RMK AO2 PK WND 31029/2252 SLP129 T02560006 $
Pressure 29.91 in
Visibility 10.0 miles
Clouds Few 10000 ft
Scattered Clouds 12000 ft
Heat Index 78 °F
Dew Point 33 °F
Humidity 19%
Rainfall 0.00 in
Snow Depth Not available.
5:13 AM 8:54 PM
Waxing Crescent, 7% visible
METAR KGGW 272253Z AUTO 33021G29KT 10SM FEW100 SCT120 26/01 A2992 RMK AO2 PK WND 31029/2252 SLP129 T02560006 $

Get Your Daily Forecast Email!

Thanks for signing up!

Be on the lookout for a verification email in your inbox.

You'll start receiving severe weather alerts in your inbox..

×

10-Day Weather Forecast

Almanac

Astronomy

May. 27, 2017 Rise Set
Actual Time
Civil Twilight
Nautical Twilight
Astronomical Twilight
Moon
Length of Visible Light
Length of Day
Tomorrow will be .
, % of the Moon is Illuminated

Today's Extremes

State Highs State Lows

Community

WunderPhotos

Category 6

Welcome to Category 6. This is the collective home for Weather Underground's featured writeups by Dr. Jeff Masters (right), Bob Henson (left), Chris Burt, and other regular contributors.

Nearby

Air Quality

  Air Quality AQ Index Pollutant
Not available.

Snow Depth

Station Depth Elevation

Earthquake Activity

City Distance Mag. Time & Date
Minimum magnitude displayed is 2.5.

Coastal Water Temperatures

Place Temperature

Stations

Nearby Weather Stations

Station Location Temp. Windchill Dew Point Humidity Wind Precip. Elev Updated Type
                   

Watches & Warnings

Lake Wind Advisory
Issued: 2:52 AM MDT May. 27, 2017 – National Weather Service

... Lake Wind Advisory in effect from noon today to 8 PM MDT this
evening for Fort Peck Lake...

The National Weather Service in Glasgow has issued a lake Wind
Advisory for Fort Peck Lake... which is in effect from noon today
to 8 PM MDT this evening.

* Winds... northwest 15 to 20 mph sustained with gusts up to 30
mph.

* Timing... noon through this evening.

* Impacts... these winds will make open waters of the lake rough
and hazardous, and may result in high waves which may tip or
swamp smaller craft.

Precautionary/preparedness actions...

Boaters should use caution if venturing onto Fort Peck Lake. For
your personal safety, avoid the open waters. Stay close to shore
or around protected areas.